Time;durP1;ratioP1;P1;durP2;ratioP2;P2;SDS_P1;SDS_P2;PMS_P1;PMS_P2;Temp;Humidity;BMP_temperature;BMP_pressure;BME280_temperature;BME280_humidity;BME280_pressure;Samples;Min_cycle;Max_cycle;Signal;HPM_P1;HPM_P2
2022/06/20 00:01:15;;;;;;;13.77;12.57;;;20.00;93.30;;;;;;5101418;28;20510;-80
2022/06/20 00:03:47;;;;;;;14.53;13.20;;;19.90;93.10;;;;;;5085391;28;20488;-84
2022/06/20 00:06:18;;;;;;;15.17;13.57;;;19.90;93.10;;;;;;5098299;28;20470;-85
2022/06/20 00:08:51;;;;;;;13.23;12.00;;;19.80;92.90;;;;;;5092410;28;20473;-86
2022/06/20 00:11:34;;;;;;;14.70;13.30;;;19.80;93.60;;;;;;5075356;28;20490;-85
2022/06/20 00:14:01;;;;;;;13.80;12.50;;;19.80;93.10;;;;;;5087336;28;20460;-84
2022/06/20 00:16:32;;;;;;;14.67;12.37;;;19.60;93.40;;;;;;5067087;28;21156;-83
2022/06/20 00:19:00;;;;;;;15.53;11.80;;;19.50;94.20;;;;;;5070501;28;20523;-84
2022/06/20 00:21:27;;;;;;;14.30;11.50;;;19.50;94.10;;;;;;5089888;28;21121;-85
2022/06/20 00:23:54;;;;;;;13.10;11.73;;;19.40;94.40;;;;;;5088379;28;20467;-84
2022/06/20 00:26:20;;;;;;;13.17;12.07;;;19.50;94.50;;;;;;5089593;28;20451;-84
2022/06/20 00:28:48;;;;;;;12.57;11.50;;;19.40;94.30;;;;;;5087288;28;21248;-84
2022/06/20 00:31:16;;;;;;;11.93;10.83;;;19.40;94.70;;;;;;5071139;28;20643;-83
2022/06/20 00:33:43;;;;;;;11.23;10.13;;;19.40;94.70;;;;;;5085565;28;20467;-84
2022/06/20 00:36:12;;;;;;;12.73;10.57;;;19.30;94.80;;;;;;5073884;28;20454;-83
2022/06/20 00:38:42;;;;;;;13.30;11.90;;;19.40;95.30;;;;;;5089111;28;20450;-84
2022/06/20 00:41:15;;;;;;;13.97;12.47;;;19.50;95.20;;;;;;5070827;28;20450;-85
2022/06/20 00:43:48;;;;;;;13.13;11.67;;;19.50;94.90;;;;;;5088222;28;20479;-81
2022/06/20 00:46:23;;;;;;;12.30;11.00;;;19.30;95.10;;;;;;5069490;28;20461;-85
2022/06/20 00:49:00;;;;;;;12.17;11.07;;;19.10;95.70;;;;;;5085700;28;20492;-84
2022/06/20 00:51:48;;;;;;;15.23;12.33;;;19.10;96.00;;;;;;5072996;28;20537;-85
2022/06/20 00:54:46;;;;;;;11.10;10.13;;;19.20;95.50;;;;;;5091639;28;20485;-86
2022/06/20 00:57:27;;;;;;;12.30;11.10;;;19.10;95.70;;;;;;5072385;28;20457;-83
2022/06/20 01:00:04;;;;;;;12.60;10.53;;;19.10;95.80;;;;;;5075174;28;20451;-86
2022/06/20 01:02:36;;;;;;;11.40;10.17;;;19.10;95.80;;;;;;5071677;28;20466;-85
2022/06/20 01:05:25;;;;;;;10.90;9.50;;;19.30;95.50;;;;;;5088916;28;20466;-84
2022/06/20 01:08:01;;;;;;;11.03;8.70;;;19.40;95.60;;;;;;5039452;28;20550;-86
2022/06/20 01:10:32;;;;;;;9.03;8.17;;;19.30;95.90;;;;;;5089983;28;20430;-84
2022/06/20 01:13:02;;;;;;;8.70;7.90;;;19.30;95.50;;;;;;5078329;28;20516;-84
2022/06/20 01:15:36;;;;;;;12.23;8.20;;;19.00;96.30;;;;;;5096147;28;20813;-85
2022/06/20 01:18:10;;;;;;;9.90;7.63;;;18.90;97.20;;;;;;5097865;28;20445;-83
2022/06/20 01:20:37;;;;;;;14.70;10.07;;;19.00;97.90;;;;;;5081455;28;20442;-86
2022/06/20 01:23:53;;;;;;;12.17;11.00;;;19.00;98.40;;;;;;5112031;27;20536;-84
2022/06/20 01:26:39;;;;;;;13.57;10.50;;;19.00;98.90;;;;;;5111358;28;20451;-85
2022/06/20 01:29:09;;;;;;;12.17;9.63;;;19.10;99.10;;;;;;5100068;28;20466;-86
2022/06/20 01:31:42;;;;;;;11.30;9.50;;;18.90;99.00;;;;;;5084076;28;20965;-85
2022/06/20 01:34:08;;;;;;;11.40;9.40;;;18.90;99.90;;;;;;5113797;27;20449;-86
2022/06/20 01:37:40;;;;;;;12.13;8.93;;;18.80;99.90;;;;;;5090172;28;22264;-84
2022/06/20 01:39:37;;;;;;;9.27;7.10;;;18.80;99.90;;;;;;5090679;28;20426;-84
2022/06/20 01:42:19;;;;;;;8.53;6.20;;;18.80;99.90;;;;;;5090216;27;20534;-85
2022/06/20 01:45:00;;;;;;;9.77;7.00;;;18.80;99.90;;;;;;5086349;28;20435;-85
2022/06/20 01:47:27;;;;;;;9.63;6.87;;;18.80;99.90;;;;;;5079896;28;20438;-85
2022/06/20 01:50:01;;;;;;;9.67;7.17;;;18.70;99.90;;;;;;5073043;28;21235;-84
2022/06/20 01:52:34;;;;;;;9.63;6.93;;;18.70;99.90;;;;;;5069999;28;21178;-84
2022/06/20 01:55:20;;;;;;;8.73;7.23;;;18.60;99.90;;;;;;5089251;28;20450;-83
2022/06/20 01:57:50;;;;;;;8.63;7.77;;;18.90;99.90;;;;;;5073250;28;20453;-84
2022/06/20 02:00:23;;;;;;;8.33;7.33;;;19.00;99.90;;;;;;5069012;28;20457;-83
2022/06/20 02:02:54;;;;;;;10.30;8.80;;;18.80;99.90;;;;;;5086738;28;20471;-82
2022/06/20 02:05:25;;;;;;;8.87;7.97;;;18.80;99.90;;;;;;5071461;28;20443;-83
2022/06/20 02:07:54;;;;;;;9.70;8.53;;;18.70;99.90;;;;;;5084819;28;20454;-84
2022/06/20 02:10:26;;;;;;;10.17;8.57;;;18.80;99.90;;;;;;5063616;28;20491;-84
2022/06/20 02:12:57;;;;;;;9.17;8.27;;;18.80;99.90;;;;;;5084090;28;20470;-83
2022/06/20 02:15:30;;;;;;;11.13;9.33;;;18.70;99.90;;;;;;5083495;28;20448;-81
2022/06/20 02:18:02;;;;;;;9.40;8.40;;;18.60;99.90;;;;;;5082987;28;20465;-82
2022/06/20 02:20:38;;;;;;;10.30;8.77;;;18.40;99.90;;;;;;5082177;28;20469;-83
2022/06/20 02:23:06;;;;;;;10.53;9.23;;;18.50;99.90;;;;;;5071283;28;20506;-84
2022/06/20 02:25:39;;;;;;;13.23;10.03;;;18.40;99.90;;;;;;5071300;28;20454;-85
2022/06/20 02:28:09;;;;;;;11.53;10.07;;;18.40;99.90;;;;;;5070304;28;20470;-83
2022/06/20 02:30:39;;;;;;;11.80;10.70;;;18.40;99.90;;;;;;5072587;28;22086;-82
2022/06/20 02:33:13;;;;;;;13.33;11.93;;;18.30;99.90;;;;;;5073258;28;20471;-81
2022/06/20 02:35:41;;;;;;;15.97;12.60;;;18.00;99.90;;;;;;5087326;28;20544;-83
2022/06/20 02:38:10;;;;;;;14.27;12.73;;;17.80;99.90;;;;;;5068530;28;20808;-82
2022/06/20 02:40:42;;;;;;;16.00;12.23;;;17.70;99.90;;;;;;5067303;28;20449;-82
2022/06/20 02:43:21;;;;;;;23.97;13.70;;;17.70;99.90;;;;;;5085385;28;20546;-81
2022/06/20 02:45:49;;;;;;;14.73;13.23;;;17.60;99.90;;;;;;5088248;28;21725;-82
2022/06/20 02:48:17;;;;;;;14.57;12.97;;;17.50;99.90;;;;;;5066012;28;20713;-83
2022/06/20 02:50:55;;;;;;;15.57;13.63;;;17.60;99.90;;;;;;5069237;28;20466;-80
2022/06/20 02:53:36;;;;;;;14.30;11.63;;;17.50;99.90;;;;;;5095899;28;21019;-82
2022/06/20 02:56:05;;;;;;;16.80;12.87;;;17.60;99.90;;;;;;5072624;28;20459;-82
2022/06/20 02:58:34;;;;;;;14.53;13.03;;;17.90;99.90;;;;;;5084426;28;20518;-82
2022/06/20 03:01:07;;;;;;;13.80;12.07;;;18.00;99.90;;;;;;5065098;28;21019;-83
2022/06/20 03:03:40;;;;;;;12.70;11.40;;;17.90;99.90;;;;;;5069594;28;21018;-84
2022/06/20 03:06:14;;;;;;;12.63;11.00;;;17.70;99.90;;;;;;5091804;28;20523;-84
2022/06/20 03:08:41;;;;;;;12.90;11.30;;;17.70;99.90;;;;;;5074579;28;20482;-84
2022/06/20 03:11:09;;;;;;;10.87;9.87;;;17.70;99.90;;;;;;5094883;28;20451;-82
2022/06/20 03:13:37;;;;;;;13.00;11.60;;;17.70;99.90;;;;;;5092698;28;20481;-85
2022/06/20 03:16:06;;;;;;;10.80;9.67;;;17.70;99.90;;;;;;5070686;28;20470;-85
2022/06/20 03:18:36;;;;;;;13.10;9.37;;;17.80;99.90;;;;;;5093408;28;20461;-83
2022/06/20 03:21:06;;;;;;;9.77;8.80;;;17.90;99.90;;;;;;5091446;28;20442;-83
2022/06/20 03:23:34;;;;;;;9.80;8.90;;;17.90;99.90;;;;;;5074418;28;20457;-83
2022/06/20 03:26:06;;;;;;;9.17;7.57;;;17.80;99.90;;;;;;5093365;28;20453;-84
2022/06/20 03:28:33;;;;;;;8.83;8.13;;;17.80;99.90;;;;;;5088705;28;22268;-83
2022/06/20 03:31:03;;;;;;;8.37;7.57;;;17.90;99.90;;;;;;5073950;28;20543;-82
2022/06/20 03:33:30;;;;;;;7.23;6.37;;;17.90;99.90;;;;;;5089649;28;20904;-84
2022/06/20 03:36:09;;;;;;;7.53;6.70;;;17.90;99.90;;;;;;5093239;28;20579;-83
2022/06/20 03:38:38;;;;;;;6.90;6.30;;;17.70;99.90;;;;;;5094852;28;20456;-82
2022/06/20 03:41:06;;;;;;;7.63;6.90;;;17.80;99.90;;;;;;5092922;28;20452;-83
2022/06/20 03:43:35;;;;;;;7.00;6.37;;;17.70;99.90;;;;;;5073315;28;20644;-82
2022/06/20 03:46:07;;;;;;;7.30;6.67;;;17.80;99.90;;;;;;5092766;28;20491;-85
2022/06/20 03:48:46;;;;;;;6.67;6.03;;;17.80;99.90;;;;;;5091092;28;21013;-81
2022/06/20 03:51:27;;;;;;;7.33;5.53;;;17.70;99.90;;;;;;5091135;28;20489;-82
2022/06/20 03:53:58;;;;;;;6.57;5.93;;;17.70;99.90;;;;;;5091259;28;20474;-82
2022/06/20 03:56:37;;;;;;;8.80;6.80;;;17.70;99.90;;;;;;5082249;28;20443;-80
2022/06/20 03:59:29;;;;;;;7.47;6.73;;;17.50;99.90;;;;;;5079856;28;20438;-82
2022/06/20 04:02:18;;;;;;;6.73;6.10;;;17.50;99.90;;;;;;5087218;28;20525;-84
2022/06/20 04:05:10;;;;;;;6.57;6.07;;;17.50;99.90;;;;;;5092102;27;20448;-84
2022/06/20 04:08:08;;;;;;;7.20;6.60;;;17.50;99.90;;;;;;5087040;28;20454;-83
2022/06/20 04:10:59;;;;;;;7.13;6.43;;;17.60;99.90;;;;;;5077700;28;20557;-84
2022/06/20 04:13:42;;;;;;;7.67;6.40;;;17.50;99.90;;;;;;5078755;28;20542;-82
2022/06/20 04:18:26;;;;;;;6.87;5.60;;;17.50;99.90;;;;;;5093990;28;20525;-82
2022/06/20 04:19:51;;;;;;;7.80;7.10;;;17.40;99.90;;;;;;5024071;28;21086;-83
2022/06/20 04:22:23;;;;;;;6.50;5.90;;;17.40;99.90;;;;;;5092991;28;20461;-81
2022/06/20 04:24:53;;;;;;;6.20;5.70;;;17.40;99.90;;;;;;5087146;28;20468;-82
2022/06/20 04:27:34;;;;;;;6.33;5.67;;;17.30;99.90;;;;;;5067478;28;20463;-83
2022/06/20 04:30:08;;;;;;;5.60;5.00;;;17.30;99.90;;;;;;5088859;28;20496;-82
2022/06/20 04:32:44;;;;;;;7.27;6.47;;;17.30;99.90;;;;;;5090002;28;20576;-82
2022/06/20 04:35:24;;;;;;;6.77;6.17;;;17.20;99.90;;;;;;5073547;28;20450;-84
2022/06/20 04:37:55;;;;;;;7.50;6.83;;;17.20;99.90;;;;;;5071076;28;20497;-84
2022/06/20 04:40:28;;;;;;;7.27;6.57;;;17.10;99.90;;;;;;5092955;28;20424;-85
2022/06/20 04:43:04;;;;;;;7.40;6.70;;;17.10;99.90;;;;;;5099617;27;20472;-84
2022/06/20 04:45:57;;;;;;;7.93;6.50;;;17.10;99.90;;;;;;5094874;27;20508;-84
2022/06/20 04:48:25;;;;;;;7.47;6.83;;;17.10;99.90;;;;;;5095601;28;20502;-83
2022/06/20 04:50:59;;;;;;;8.57;6.50;;;17.10;99.90;;;;;;5096747;28;20476;-85
2022/06/20 04:53:33;;;;;;;8.20;7.50;;;17.10;99.90;;;;;;5097448;28;20589;-83
2022/06/20 04:56:04;;;;;;;7.53;6.83;;;17.20;99.90;;;;;;5106627;27;20467;-82
2022/06/20 04:58:43;;;;;;;8.50;7.03;;;17.10;99.90;;;;;;5107503;27;20470;-81
2022/06/20 05:01:09;;;;;;;7.00;6.40;;;17.10;99.90;;;;;;5099936;28;20442;-81
2022/06/20 05:03:59;;;;;;;8.97;8.03;;;17.20;99.90;;;;;;5077236;28;20459;-83
2022/06/20 05:06:29;;;;;;;9.70;7.73;;;17.20;99.90;;;;;;5091544;28;20454;-84
2022/06/20 05:09:07;;;;;;;8.67;7.90;;;17.30;99.90;;;;;;5070693;28;20455;-83
2022/06/20 05:11:41;;;;;;;8.67;7.87;;;17.40;99.90;;;;;;5087374;28;20468;-83
2022/06/20 05:14:16;;;;;;;8.83;8.10;;;17.40;99.90;;;;;;5100097;28;20896;-82
2022/06/20 05:16:51;;;;;;;9.60;8.80;;;17.30;99.90;;;;;;5100301;28;20446;-82
2022/06/20 05:19:26;;;;;;;11.10;8.70;;;17.30;99.90;;;;;;5076579;28;20458;-81
2022/06/20 05:21:58;;;;;;;10.17;9.17;;;17.30;99.90;;;;;;5090216;28;20469;-83
2022/06/20 05:24:32;;;;;;;9.57;8.57;;;17.40;99.90;;;;;;5073301;28;20450;-83
2022/06/20 05:27:06;;;;;;;11.30;10.20;;;17.40;99.90;;;;;;5084010;28;20462;-85
2022/06/20 05:29:37;;;;;;;9.70;8.70;;;17.30;99.90;;;;;;5067387;28;20479;-85
2022/06/20 05:32:08;;;;;;;8.80;7.90;;;17.30;99.90;;;;;;5064784;28;20568;-84
2022/06/20 05:34:52;;;;;;;8.50;7.70;;;17.40;99.90;;;;;;5083854;28;20490;-83
2022/06/20 05:37:53;;;;;;;9.50;8.60;;;17.30;99.90;;;;;;5078138;28;20455;-84
2022/06/20 05:40:39;;;;;;;11.20;10.10;;;17.60;99.90;;;;;;5093694;28;20459;-82
2022/06/20 05:43:19;;;;;;;10.77;9.30;;;17.60;99.90;;;;;;5089304;28;20474;-81
2022/06/20 05:45:55;;;;;;;9.67;8.77;;;17.60;99.90;;;;;;5073930;28;20445;-82
2022/06/20 05:48:40;;;;;;;11.07;8.60;;;17.40;99.90;;;;;;5075616;28;20462;-82
2022/06/20 05:51:09;;;;;;;10.43;7.90;;;17.40;99.90;;;;;;5071920;28;20484;-83
2022/06/20 05:53:46;;;;;;;9.90;8.90;;;17.40;99.90;;;;;;5087232;28;20475;-82
2022/06/20 05:56:24;;;;;;;8.53;7.73;;;17.50;99.90;;;;;;5091225;28;20462;-82
2022/06/20 05:58:51;;;;;;;8.43;7.23;;;17.40;99.90;;;;;;5087513;28;20483;-84
2022/06/20 06:01:23;;;;;;;7.37;6.67;;;17.40;99.90;;;;;;5070568;28;20462;-84
2022/06/20 06:04:00;;;;;;;7.20;6.17;;;17.50;99.90;;;;;;5086784;28;20485;-82
2022/06/20 06:06:37;;;;;;;10.03;7.30;;;17.40;99.90;;;;;;5072222;28;20491;-84
2022/06/20 06:09:15;;;;;;;6.80;5.80;;;17.30;99.90;;;;;;5070368;28;20490;-82
2022/06/20 06:11:49;;;;;;;7.63;6.57;;;17.40;99.90;;;;;;5067113;28;20603;-85
2022/06/20 06:14:31;;;;;;;6.80;6.20;;;17.40;99.90;;;;;;5087656;28;20450;-84
2022/06/20 06:17:14;;;;;;;6.67;6.07;;;17.20;99.90;;;;;;5067818;28;20474;-85
2022/06/20 06:20:05;;;;;;;6.33;5.83;;;17.30;99.90;;;;;;5074127;28;21502;-83
2022/06/20 06:22:43;;;;;;;9.83;5.60;;;17.30;99.90;;;;;;5071102;28;20532;-83
2022/06/20 06:25:23;;;;;;;4.90;4.40;;;17.40;99.90;;;;;;5089805;28;20465;-83
2022/06/20 06:27:54;;;;;;;6.33;4.47;;;17.30;99.90;;;;;;5091589;28;20446;-84
2022/06/20 06:30:32;;;;;;;5.43;4.57;;;17.30;99.90;;;;;;5072706;28;20465;-81
2022/06/20 06:33:01;;;;;;;6.63;3.63;;;17.40;99.90;;;;;;5088562;28;20557;-83
2022/06/20 06:35:37;;;;;;;3.70;3.40;;;17.30;99.90;;;;;;5074685;28;20439;-82
2022/06/20 06:38:11;;;;;;;4.53;3.40;;;17.20;99.90;;;;;;5076251;28;21159;-83
2022/06/20 06:40:48;;;;;;;5.90;3.10;;;17.20;99.90;;;;;;5084978;28;20462;-84
2022/06/20 06:43:32;;;;;;;4.40;3.50;;;17.20;99.90;;;;;;5096987;28;20453;-86
2022/06/20 06:46:01;;;;;;;4.57;3.23;;;17.30;99.90;;;;;;5111987;27;20439;-86
2022/06/20 06:48:39;;;;;;;8.43;3.80;;;17.30;99.90;;;;;;5081549;28;20543;-84
2022/06/20 06:51:20;;;;;;;8.00;3.17;;;17.20;99.90;;;;;;5097601;28;20549;-82
2022/06/20 06:54:02;;;;;;;4.30;3.33;;;17.20;99.90;;;;;;5081578;28;20473;-83
2022/06/20 06:56:51;;;;;;;8.00;4.00;;;17.10;99.90;;;;;;5076965;28;20435;-82
2022/06/20 06:59:32;;;;;;;4.57;3.10;;;17.10;99.90;;;;;;5102708;28;20442;-84
2022/06/20 07:02:02;;;;;;;6.03;3.00;;;17.10;99.90;;;;;;5078793;28;20458;-84
2022/06/20 07:04:57;;;;;;;5.50;3.17;;;17.10;99.90;;;;;;5079001;28;20477;-84
2022/06/20 07:08:00;;;;;;;3.10;2.70;;;17.10;99.90;;;;;;5075632;28;20821;-82
2022/06/20 07:10:45;;;;;;;6.67;3.80;;;17.20;99.90;;;;;;5061009;28;20485;-82
2022/06/20 07:13:31;;;;;;;6.13;4.10;;;17.30;99.90;;;;;;5093411;28;20520;-85
2022/06/20 07:16:01;;;;;;;6.20;3.07;;;17.30;99.90;;;;;;5074767;28;20539;-84
2022/06/20 07:18:41;;;;;;;8.83;3.50;;;17.20;99.90;;;;;;5091812;28;20468;-83
2022/06/20 07:21:11;;;;;;;6.07;4.00;;;17.30;99.90;;;;;;5074276;28;20437;-85
2022/06/20 07:23:54;;;;;;;5.23;4.20;;;17.30;99.90;;;;;;5093308;28;20482;-82
2022/06/20 07:26:22;;;;;;;4.13;3.77;;;17.20;99.90;;;;;;5090832;28;20445;-82
2022/06/20 07:29:02;;;;;;;7.60;3.83;;;17.20;99.90;;;;;;5073906;28;20454;-84
2022/06/20 07:31:43;;;;;;;12.73;4.90;;;17.10;99.90;;;;;;5091432;28;20661;-83
2022/06/20 07:34:18;;;;;;;8.33;4.73;;;17.00;99.90;;;;;;5076345;28;20431;-86
2022/06/20 07:37:16;;;;;;;6.30;4.37;;;17.10;99.90;;;;;;5079058;28;20436;-84
2022/06/20 07:39:50;;;;;;;5.83;4.33;;;17.20;99.90;;;;;;5059400;28;20454;-83
2022/06/20 07:42:40;;;;;;;6.40;4.60;;;17.30;99.90;;;;;;5073368;28;20466;-83
2022/06/20 07:45:15;;;;;;;8.90;5.40;;;17.10;99.90;;;;;;5076508;28;20454;-85
2022/06/20 07:47:47;;;;;;;7.97;5.40;;;17.20;99.90;;;;;;5091809;28;20453;-83
2022/06/20 07:50:19;;;;;;;10.20;5.97;;;17.30;99.90;;;;;;5073014;28;21744;-83
2022/06/20 07:52:58;;;;;;;8.40;5.80;;;17.20;99.90;;;;;;5090320;28;20461;-82
2022/06/20 07:55:30;;;;;;;7.03;6.10;;;17.20;99.90;;;;;;5077647;28;20446;-83
2022/06/20 07:58:15;;;;;;;7.83;7.03;;;17.20;99.90;;;;;;5074979;28;20442;-83
2022/06/20 08:00:47;;;;;;;9.43;6.80;;;17.20;99.90;;;;;;5091166;28;20466;-82
2022/06/20 08:03:36;;;;;;;10.17;6.70;;;17.30;99.90;;;;;;5073564;28;20471;-82
2022/06/20 08:06:04;;;;;;;9.80;6.20;;;17.40;99.90;;;;;;5075836;28;20517;-81
2022/06/20 08:08:44;;;;;;;9.70;5.77;;;17.30;99.90;;;;;;5077202;28;20461;-86
2022/06/20 08:14:27;;;;;;;7.67;4.47;;;17.20;99.90;;;;;;5089797;28;20449;-82
2022/06/20 08:16:59;;;;;;;5.23;4.07;;;17.20;99.90;;;;;;5090022;28;20482;-83
2022/06/20 08:19:29;;;;;;;3.63;3.23;;;17.20;99.90;;;;;;5075501;28;20455;-81
2022/06/20 08:22:25;;;;;;;10.60;4.40;;;17.20;99.90;;;;;;5059244;28;20463;-84
2022/06/20 08:25:02;;;;;;;5.53;3.47;;;17.20;99.90;;;;;;5075975;28;20964;-85
2022/06/20 08:27:43;;;;;;;5.37;3.50;;;17.10;99.90;;;;;;5091651;28;20460;-83
2022/06/20 08:30:26;;;;;;;6.70;3.50;;;17.30;99.90;;;;;;5070943;28;20483;-84
2022/06/20 08:33:03;;;;;;;4.70;2.33;;;17.30;99.90;;;;;;5078320;28;20481;-83
2022/06/20 08:35:57;;;;;;;6.30;2.83;;;17.20;99.90;;;;;;5088956;28;20449;-83
2022/06/20 08:38:33;;;;;;;6.50;3.00;;;17.20;99.60;;;;;;5076663;28;20914;-84
2022/06/20 08:41:19;;;;;;;7.00;3.60;;;17.20;99.90;;;;;;5069521;28;20463;-83
2022/06/20 08:43:59;;;;;;;4.20;3.70;;;17.10;99.90;;;;;;5071638;28;20520;-82
2022/06/20 08:46:38;;;;;;;3.20;2.30;;;17.20;99.90;;;;;;5075798;28;20511;-85
2022/06/20 08:49:42;;;;;;;5.87;3.17;;;17.20;99.90;;;;;;5071814;28;21094;-84
2022/06/20 08:52:28;;;;;;;6.33;2.90;;;17.30;99.90;;;;;;5073646;28;20493;-84
2022/06/20 08:55:05;;;;;;;7.00;3.47;;;17.40;99.90;;;;;;5087258;28;20513;-83
2022/06/20 08:57:44;;;;;;;6.47;3.07;;;17.60;99.90;;;;;;5088170;28;21047;-84
2022/06/20 09:00:43;;;;;;;4.33;2.93;;;17.70;99.90;;;;;;5075795;28;20844;-83
2022/06/20 09:03:16;;;;;;;5.00;2.93;;;17.90;99.70;;;;;;5074793;28;20470;-83
2022/06/20 09:06:07;;;;;;;8.20;2.67;;;18.10;99.40;;;;;;5088938;28;20446;-84
2022/06/20 09:09:09;;;;;;;3.23;2.23;;;18.10;98.30;;;;;;5068543;28;20553;-82
2022/06/20 09:11:57;;;;;;;6.20;2.43;;;18.20;96.90;;;;;;5094271;28;20482;-84
2022/06/20 09:14:29;;;;;;;6.37;3.10;;;18.30;97.10;;;;;;5093309;28;20446;-83
2022/06/20 09:17:38;;;;;;;4.27;2.23;;;18.20;96.00;;;;;;5079123;28;20443;-83
2022/06/20 09:20:36;;;;;;;5.10;2.30;;;18.00;95.80;;;;;;5068365;28;20455;-84
2022/06/20 09:23:12;;;;;;;4.57;2.03;;;18.10;95.90;;;;;;5106895;28;20498;-86
2022/06/20 09:25:57;;;;;;;6.10;2.23;;;18.20;95.90;;;;;;5092300;28;20566;-81
2022/06/20 09:28:54;;;;;;;5.30;2.63;;;18.20;95.30;;;;;;5085127;28;20452;-81
2022/06/20 09:31:43;;;;;;;10.63;3.27;;;18.20;95.20;;;;;;5076610;28;20541;-83
2022/06/20 09:34:31;;;;;;;7.40;2.13;;;18.60;95.70;;;;;;5067774;28;20516;-84
2022/06/20 09:37:32;;;;;;;4.57;2.33;;;19.30;95.10;;;;;;5069468;28;20530;-83
2022/06/20 09:40:03;;;;;;;4.43;2.20;;;19.60;92.90;;;;;;5073041;28;20444;-84
2022/06/20 09:42:57;;;;;;;5.63;2.70;;;19.60;92.30;;;;;;5090173;28;20505;-84
2022/06/20 09:45:36;;;;;;;5.30;2.73;;;19.70;92.10;;;;;;5090483;28;20453;-87
2022/06/20 09:48:14;;;;;;;4.00;2.50;;;19.50;92.40;;;;;;5071869;28;20854;-84
2022/06/20 09:50:53;;;;;;;4.10;2.70;;;19.40;92.10;;;;;;5097376;28;20461;-85
2022/06/20 09:53:32;;;;;;;6.70;3.10;;;19.20;92.60;;;;;;5078949;28;20505;-82
2022/06/20 09:56:04;;;;;;;5.03;2.77;;;18.90;91.50;;;;;;5093714;28;20489;-83
2022/06/20 09:59:07;;;;;;;6.60;2.57;;;18.90;92.40;;;;;;5094612;28;20441;-82
2022/06/20 10:01:50;;;;;;;4.13;2.60;;;18.90;91.90;;;;;;5099033;28;20454;-83
2022/06/20 10:04:41;;;;;;;6.20;3.17;;;19.20;91.70;;;;;;5071896;28;20455;-82
2022/06/20 10:07:55;;;;;;;5.70;3.40;;;19.70;91.10;;;;;;5085855;28;20437;-81
2022/06/20 10:10:43;;;;;;;5.13;3.43;;;19.30;91.20;;;;;;5087037;28;20443;-82
2022/06/20 10:13:30;;;;;;;26.47;8.50;;;19.10;91.80;;;;;;5087501;28;20563;-84
2022/06/20 10:16:26;;;;;;;5.80;3.70;;;19.00;92.40;;;;;;5092506;28;20450;-86
2022/06/20 10:19:14;;;;;;;8.60;4.37;;;19.20;91.80;;;;;;5074053;28;20446;-84
2022/06/20 10:21:59;;;;;;;5.43;4.57;;;19.20;92.10;;;;;;5090085;28;20461;-85
2022/06/20 10:25:03;;;;;;;7.10;5.30;;;19.00;92.20;;;;;;5090988;28;20449;-84
2022/06/20 10:28:08;;;;;;;6.37;4.73;;;18.80;92.30;;;;;;5095601;28;20443;-82
2022/06/20 10:31:01;;;;;;;5.70;4.60;;;18.70;92.50;;;;;;5092477;28;20457;-85
2022/06/20 10:33:45;;;;;;;6.80;5.03;;;18.60;92.40;;;;;;5097130;28;20486;-82
2022/06/20 10:36:25;;;;;;;6.23;4.23;;;18.80;93.20;;;;;;5093797;28;20445;-83
2022/06/20 10:39:07;;;;;;;7.60;4.90;;;19.20;92.20;;;;;;5071695;28;20467;-83
2022/06/20 10:42:04;;;;;;;8.80;4.10;;;19.00;92.10;;;;;;5068559;28;20545;-81
2022/06/20 10:44:55;;;;;;;7.53;4.67;;;18.70;93.00;;;;;;5070574;28;20549;-83
2022/06/20 10:47:52;;;;;;;8.07;4.67;;;18.60;93.70;;;;;;5071001;28;20450;-83
2022/06/20 10:50:57;;;;;;;7.27;4.70;;;18.70;93.90;;;;;;5074416;28;20477;-84
2022/06/20 10:53:33;;;;;;;5.77;5.10;;;18.80;93.90;;;;;;5071649;28;20914;-83
2022/06/20 10:56:18;;;;;;;11.23;6.50;;;19.00;93.60;;;;;;5089082;28;20773;-82
2022/06/20 10:59:18;;;;;;;7.60;7.00;;;19.40;92.90;;;;;;5073272;28;20470;-83
2022/06/20 11:02:20;;;;;;;9.23;8.33;;;19.40;92.00;;;;;;5072376;28;21042;-83
2022/06/20 11:05:16;;;;;;;9.30;8.23;;;19.10;92.40;;;;;;5073997;28;20475;-84
2022/06/20 11:07:59;;;;;;;9.47;8.23;;;19.40;92.60;;;;;;5065758;28;20514;-83
2022/06/20 11:10:50;;;;;;;10.80;7.97;;;19.40;92.30;;;;;;5090061;28;20462;-83
2022/06/20 11:13:31;;;;;;;10.93;7.60;;;19.60;92.40;;;;;;5072348;28;20474;-83
2022/06/20 11:16:19;;;;;;;8.57;7.67;;;19.80;92.10;;;;;;5072709;28;20447;-83
2022/06/20 11:19:09;;;;;;;9.83;7.00;;;19.60;92.50;;;;;;5074804;28;21138;-84
2022/06/20 11:22:08;;;;;;;11.10;7.17;;;19.40;92.90;;;;;;5071323;28;20465;-83
2022/06/20 11:24:46;;;;;;;12.30;7.40;;;19.20;93.50;;;;;;5036209;28;20462;-83
2022/06/20 11:27:29;;;;;;;9.67;7.60;;;19.40;93.90;;;;;;5072574;28;20443;-80
2022/06/20 11:29:59;;;;;;;10.43;7.27;;;19.70;93.50;;;;;;5092264;28;20504;-83
2022/06/20 11:32:47;;;;;;;11.57;7.80;;;19.60;93.30;;;;;;5091154;28;20486;-84
2022/06/20 11:35:30;;;;;;;9.53;6.70;;;19.70;93.90;;;;;;5085920;28;20436;-81
2022/06/20 11:38:22;;;;;;;8.43;5.73;;;20.00;93.00;;;;;;5072029;28;20443;-84
2022/06/20 11:41:02;;;;;;;7.60;6.27;;;20.30;91.90;;;;;;5088972;28;20454;-83
2022/06/20 11:44:06;;;;;;;6.53;5.93;;;20.70;91.40;;;;;;5071590;28;21178;-84
2022/06/20 11:46:52;;;;;;;7.63;5.53;;;22.00;90.00;;;;;;5079281;28;20486;-86
2022/06/20 11:49:31;;;;;;;7.63;6.10;;;23.60;82.90;;;;;;5080874;28;20449;-84
2022/06/20 11:52:36;;;;;;;10.70;6.83;;;24.10;79.10;;;;;;5095369;28;20470;-83
2022/06/20 11:55:26;;;;;;;7.30;6.37;;;23.10;80.20;;;;;;5053695;28;20529;-82
2022/06/20 11:58:16;;;;;;;7.90;6.20;;;22.40;82.60;;;;;;5074745;28;21019;-83
2022/06/20 12:00:51;;;;;;;7.63;6.60;;;22.10;84.80;;;;;;5081736;28;20460;-84
2022/06/20 12:03:36;;;;;;;8.70;7.13;;;22.00;85.40;;;;;;5085983;28;20488;-84
2022/06/20 12:06:14;;;;;;;7.37;6.50;;;22.20;83.40;;;;;;5093091;28;20447;-83
2022/06/20 12:08:51;;;;;;;7.40;6.10;;;22.00;84.70;;;;;;5108453;27;20427;-83
2022/06/20 12:11:30;;;;;;;6.97;5.87;;;21.60;86.20;;;;;;5093255;28;20600;-85
2022/06/20 12:14:18;;;;;;;8.00;6.53;;;22.10;85.60;;;;;;5110203;27;20459;-85
2022/06/20 12:16:57;;;;;;;8.00;6.87;;;22.10;83.80;;;;;;5102790;28;20434;-86
2022/06/20 12:25:31;;;;;;;6.63;6.00;;;22.20;84.60;;;;;;5086883;28;20437;-82
2022/06/20 12:27:58;;;;;;;6.60;5.53;;;22.30;81.70;;;;;;5086444;28;20456;-84
2022/06/20 12:30:26;;;;;;;6.53;5.20;;;22.00;81.90;;;;;;5084684;28;20459;-83
2022/06/20 12:32:56;;;;;;;7.17;5.47;;;21.80;82.70;;;;;;5049759;28;20487;-84
2022/06/20 12:35:35;;;;;;;5.70;4.80;;;21.80;83.00;;;;;;5078894;28;20443;-83
2022/06/20 12:38:21;;;;;;;7.87;5.33;;;21.90;82.50;;;;;;5084161;28;20438;-83
2022/06/20 12:40:56;;;;;;;8.40;5.03;;;22.60;79.80;;;;;;5083765;28;20458;-84
2022/06/20 12:43:41;;;;;;;6.73;5.73;;;22.60;78.80;;;;;;5087871;28;20487;-82
2022/06/20 12:46:17;;;;;;;5.73;4.60;;;22.60;77.40;;;;;;5069109;28;20469;-82
2022/06/20 12:48:43;;;;;;;7.10;4.53;;;22.30;77.70;;;;;;5086202;28;20454;-83
2022/06/20 12:51:21;;;;;;;5.80;4.40;;;21.80;77.00;;;;;;5070583;28;20483;-83
2022/06/20 12:54:38;;;;;;;6.03;4.43;;;22.00;79.20;;;;;;5065914;28;20542;-83
2022/06/20 12:57:05;;;;;;;6.57;3.77;;;22.50;76.50;;;;;;5017813;28;20445;-82
2022/06/20 13:00:13;;;;;;;6.47;4.03;;;22.30;77.20;;;;;;4969777;28;20503;-84
2022/06/20 13:03:10;;;;;;;6.90;3.03;;;22.50;76.40;;;;;;5074343;28;20534;-83
2022/06/20 13:06:07;;;;;;;3.90;2.20;;;23.00;68.80;;;;;;5083463;28;20545;-85
2022/06/20 13:08:51;;;;;;;5.47;2.07;;;23.20;66.10;;;;;;5067377;28;20454;-84
2022/06/20 13:11:40;;;;;;;3.57;1.77;;;22.80;67.40;;;;;;5069428;28;20463;-84
2022/06/20 13:14:42;;;;;;;3.60;2.63;;;22.60;64.40;;;;;;5086695;28;20459;-85
2022/06/20 13:17:33;;;;;;;2.60;1.97;;;22.30;64.90;;;;;;5089993;28;20521;-84
2022/06/20 13:20:32;;;;;;;4.00;1.87;;;22.20;65.00;;;;;;5100205;28;20432;-84
2022/06/20 13:23:14;;;;;;;3.30;1.80;;;22.10;63.80;;;;;;5102543;28;20534;-84
2022/06/20 13:25:53;;;;;;;3.07;2.03;;;22.10;63.40;;;;;;5085474;28;20454;-84
2022/06/20 13:28:36;;;;;;;4.00;1.90;;;22.30;62.20;;;;;;5102243;28;20457;-84
2022/06/20 13:31:15;;;;;;;4.50;1.90;;;22.30;62.10;;;;;;5085072;28;20429;-83
2022/06/20 13:34:04;;;;;;;3.43;2.07;;;22.90;62.10;;;;;;5086532;28;20558;-82
2022/06/20 13:36:54;;;;;;;2.43;2.10;;;23.20;60.00;;;;;;5098009;28;20486;-86
2022/06/20 13:39:42;;;;;;;3.43;1.87;;;23.10;61.20;;;;;;5078125;28;20455;-85
2022/06/20 13:42:27;;;;;;;2.83;1.80;;;22.90;60.60;;;;;;5070980;28;20933;-84
2022/06/20 13:45:08;;;;;;;2.83;2.10;;;23.10;59.70;;;;;;5087531;28;22552;-83
2022/06/20 13:47:55;;;;;;;3.37;1.90;;;23.00;58.40;;;;;;5074298;28;21165;-83
2022/06/20 13:50:41;;;;;;;3.93;2.33;;;23.00;58.60;;;;;;5069413;28;20457;-83
2022/06/20 13:53:08;;;;;;;2.73;1.83;;;23.00;59.20;;;;;;5089741;28;20486;-83
2022/06/20 13:56:09;;;;;;;2.93;1.77;;;22.90;59.00;;;;;;5070539;28;20554;-85
2022/06/20 13:59:01;;;;;;;3.87;1.80;;;22.90;58.60;;;;;;5087214;28;20449;-84